createdAt,value
2019-03-10T00:00:29.911Z,11.90
2019-03-10T00:02:58.477Z,11.90
2019-03-10T00:05:26.929Z,11.80
2019-03-10T00:07:55.413Z,11.80
2019-03-10T00:10:23.771Z,11.80
2019-03-10T00:12:52.230Z,11.80
2019-03-10T00:15:20.841Z,11.80
2019-03-10T00:18:01.567Z,11.80
2019-03-10T00:20:31.117Z,11.80
2019-03-10T00:22:59.510Z,11.80
2019-03-10T00:25:27.893Z,11.80
2019-03-10T00:27:56.404Z,11.70
2019-03-10T00:30:24.835Z,11.80
2019-03-10T00:32:53.266Z,11.80
2019-03-10T00:35:21.840Z,11.80
2019-03-10T00:37:50.223Z,11.80
2019-03-10T00:40:51.723Z,11.80
2019-03-10T00:43:40.949Z,11.80
2019-03-10T00:46:32.905Z,11.70
2019-03-10T00:49:18.887Z,11.70
2019-03-10T00:52:08.781Z,11.70
2019-03-10T00:54:37.244Z,11.60
2019-03-10T00:57:06.728Z,11.60
2019-03-10T00:59:35.214Z,11.70
2019-03-10T01:02:03.758Z,11.70
2019-03-10T01:04:32.185Z,11.60
2019-03-10T01:07:01.719Z,11.60
2019-03-10T01:09:30.418Z,11.60
2019-03-10T01:11:58.866Z,11.50
2019-03-10T01:14:27.325Z,11.40
2019-03-10T01:16:56.130Z,11.30
2019-03-10T01:19:24.548Z,11.20
2019-03-10T01:21:53.107Z,11.10
2019-03-10T01:24:21.571Z,11.00
2019-03-10T01:26:50.036Z,10.90
2019-03-10T01:29:18.449Z,10.80
2019-03-10T01:32:02.310Z,10.70
2019-03-10T01:34:49.261Z,10.50
2019-03-10T01:37:17.652Z,10.40
2019-03-10T01:39:46.124Z,10.30
2019-03-10T01:42:14.640Z,10.40
2019-03-10T01:44:43.112Z,10.40
2019-03-10T01:47:11.569Z,10.50
2019-03-10T01:49:40.121Z,10.50
2019-03-10T01:52:08.478Z,10.50
2019-03-10T01:54:36.845Z,10.50
2019-03-10T01:57:05.309Z,10.50
2019-03-10T01:59:33.689Z,10.50
2019-03-10T02:02:02.168Z,10.60
2019-03-10T02:04:30.633Z,10.70
2019-03-10T02:06:59.058Z,10.60
2019-03-10T02:09:27.442Z,10.60
2019-03-10T02:11:55.873Z,10.70
2019-03-10T02:14:24.282Z,10.70
2019-03-10T02:16:52.570Z,10.80
2019-03-10T02:19:20.938Z,10.80
2019-03-10T02:21:49.357Z,10.80
2019-03-10T02:24:23.713Z,10.70
2019-03-10T02:26:47.847Z,10.70
2019-03-10T02:29:16.268Z,10.60
2019-03-10T02:31:44.742Z,10.50
2019-03-10T02:34:14.235Z,10.60
2019-03-10T02:36:42.660Z,10.50
2019-03-10T02:39:11.034Z,10.60
2019-03-10T02:41:39.592Z,10.50
2019-03-10T02:44:08.007Z,10.50
2019-03-10T02:46:36.483Z,10.50
2019-03-10T02:49:04.997Z,10.40
2019-03-10T02:51:33.410Z,10.20
2019-03-10T02:54:01.942Z,10.00
2019-03-10T02:56:30.506Z,9.70
2019-03-10T02:58:58.869Z,9.60
2019-03-10T03:01:27.331Z,9.50
2019-03-10T03:03:55.783Z,9.50
2019-03-10T03:06:24.477Z,9.60
2019-03-10T03:08:52.935Z,9.50
2019-03-10T03:11:21.476Z,9.40
2019-03-10T03:13:49.884Z,9.40
2019-03-10T03:16:18.362Z,9.30
2019-03-10T03:18:46.864Z,9.30
2019-03-10T03:21:15.372Z,9.40
2019-03-10T03:23:43.794Z,9.40
2019-03-10T03:26:12.268Z,9.30
2019-03-10T03:28:40.724Z,9.40
2019-03-10T03:31:09.208Z,9.30
2019-03-10T03:33:37.785Z,9.30
2019-03-10T03:36:15.456Z,9.20
2019-03-10T03:38:48.572Z,9.20
2019-03-10T03:41:24.709Z,9.20
2019-03-10T03:43:53.216Z,9.20
2019-03-10T03:46:21.677Z,9.20
2019-03-10T03:48:50.170Z,9.30
2019-03-10T03:51:18.613Z,9.30
2019-03-10T03:53:46.992Z,9.20
2019-03-10T03:56:15.430Z,9.10
2019-03-10T03:58:43.920Z,9.20
2019-03-10T04:01:16.670Z,9.20
2019-03-10T04:03:45.056Z,9.30
2019-03-10T04:06:13.570Z,9.30
2019-03-10T04:08:41.975Z,9.40
2019-03-10T04:11:10.437Z,9.40
2019-03-10T04:13:38.987Z,9.50
2019-03-10T04:16:07.444Z,9.50
2019-03-10T04:18:36.055Z,9.40
2019-03-10T04:21:04.520Z,9.50
2019-03-10T04:23:32.959Z,9.50
2019-03-10T04:26:01.553Z,9.60
2019-03-10T04:28:49.454Z,9.60
2019-03-10T04:31:17.987Z,9.50
2019-03-10T04:33:46.455Z,9.50
2019-03-10T04:36:14.832Z,9.50
2019-03-10T04:38:43.349Z,9.60
2019-03-10T04:41:11.793Z,9.60
2019-03-10T04:43:40.162Z,9.70
2019-03-10T04:46:08.732Z,9.70
2019-03-10T04:48:37.164Z,9.70
2019-03-10T04:51:05.593Z,9.80
2019-03-10T04:53:34.104Z,9.80
2019-03-10T04:56:04.530Z,9.70
2019-03-10T04:58:34.609Z,9.60
2019-03-10T05:01:03.378Z,9.60
2019-03-10T05:03:31.838Z,9.50
2019-03-10T05:06:00.278Z,9.30
2019-03-10T05:08:28.798Z,9.30
2019-03-10T05:10:57.240Z,9.20
2019-03-10T05:13:25.702Z,9.30
2019-03-10T05:15:54.324Z,9.20
2019-03-10T05:18:22.691Z,9.20
2019-03-10T05:20:50.977Z,9.10
2019-03-10T05:23:34.434Z,9.00
2019-03-10T05:26:02.838Z,9.00
2019-03-10T05:28:33.819Z,9.00
2019-03-10T05:31:02.386Z,9.00
2019-03-10T05:33:30.824Z,8.90
2019-03-10T05:35:59.215Z,9.00
2019-03-10T05:38:27.728Z,9.10
2019-03-10T05:40:56.143Z,9.20
2019-03-10T05:43:24.513Z,9.20
2019-03-10T05:45:52.966Z,9.20
2019-03-10T05:48:21.388Z,9.20
2019-03-10T05:50:49.863Z,9.20
2019-03-10T05:53:18.298Z,9.20
2019-03-10T05:55:46.758Z,9.20
2019-03-10T05:58:15.238Z,9.30
2019-03-10T06:00:43.749Z,9.30
2019-03-10T06:03:12.207Z,9.40
2019-03-10T06:05:40.679Z,9.40
2019-03-10T06:08:09.213Z,9.40
2019-03-10T06:10:37.635Z,9.40
2019-03-10T06:13:06.090Z,9.40
2019-03-10T06:15:34.633Z,9.40
2019-03-10T06:18:13.005Z,9.50
2019-03-10T06:20:33.280Z,9.50
2019-03-10T06:23:01.683Z,9.40
2019-03-10T06:25:30.116Z,9.50
2019-03-10T06:27:58.496Z,9.50
2019-03-10T06:30:26.924Z,9.40
2019-03-10T06:32:55.381Z,9.50
2019-03-10T06:35:23.914Z,9.70
2019-03-10T06:37:52.443Z,9.80
2019-03-10T06:40:31.376Z,9.90
2019-03-10T06:42:51.177Z,9.80
2019-03-10T06:45:19.647Z,9.70
2019-03-10T06:47:48.109Z,9.60
2019-03-10T06:50:17.651Z,9.40
2019-03-10T06:52:46.113Z,9.40
2019-03-10T06:55:14.420Z,9.30
2019-03-10T06:57:43.896Z,9.30
2019-03-10T07:00:13.640Z,9.40
2019-03-10T07:02:42.029Z,9.40
2019-03-10T07:05:11.873Z,9.50
2019-03-10T07:07:59.826Z,9.40
2019-03-10T07:10:28.180Z,9.40
2019-03-10T07:12:56.570Z,9.40
2019-03-10T07:15:25.104Z,9.50
2019-03-10T07:17:53.525Z,9.60
2019-03-10T07:20:21.941Z,9.50
2019-03-10T07:22:50.400Z,9.50
2019-03-10T07:25:18.942Z,9.60
2019-03-10T07:27:51.775Z,9.70
2019-03-10T07:30:39.245Z,9.80
2019-03-10T07:33:25.179Z,9.80
2019-03-10T07:35:58.220Z,9.70
2019-03-10T07:38:28.259Z,9.80
2019-03-10T07:41:16.444Z,10.10
2019-03-10T07:43:52.260Z,10.30
2019-03-10T07:46:22.402Z,10.40
2019-03-10T07:49:01.666Z,10.40
2019-03-10T07:51:34.580Z,10.40
2019-03-10T07:54:13.854Z,10.40
2019-03-10T07:57:00.322Z,10.50
2019-03-10T07:59:32.388Z,10.50
2019-03-10T08:02:18.786Z,10.50
2019-03-10T08:05:06.373Z,10.50
2019-03-10T08:07:45.307Z,10.50
2019-03-10T08:10:17.857Z,10.50
2019-03-10T08:13:06.002Z,10.70
2019-03-10T08:15:44.694Z,10.80
2019-03-10T08:18:31.059Z,10.90
2019-03-10T08:21:06.338Z,10.90
2019-03-10T08:23:54.396Z,10.90
2019-03-10T08:26:42.545Z,11.00
2019-03-10T08:31:56.885Z,11.20
2019-03-10T08:34:42.188Z,11.20
2019-03-10T08:37:21.198Z,11.30
2019-03-10T08:40:06.597Z,11.40
2019-03-10T08:42:39.335Z,11.40
2019-03-10T08:45:19.178Z,11.40
2019-03-10T08:48:06.889Z,11.50
2019-03-10T08:50:37.020Z,11.50
2019-03-10T08:56:11.169Z,11.80
2019-03-10T08:58:57.329Z,11.80
2019-03-10T09:01:43.608Z,12.00
2019-03-10T09:04:30.038Z,12.20
2019-03-10T09:06:59.457Z,12.20
2019-03-10T09:09:47.382Z,12.10
2019-03-10T09:12:17.456Z,12.10
2019-03-10T09:14:47.501Z,12.00
2019-03-10T09:17:17.525Z,12.00
2019-03-10T09:20:03.953Z,12.10
2019-03-10T09:22:49.536Z,12.00
2019-03-10T09:25:31.749Z,12.00
2019-03-10T09:28:30.186Z,12.10
2019-03-10T09:31:03.131Z,12.30
2019-03-10T09:33:39.218Z,12.30
2019-03-10T09:36:09.309Z,12.30
2019-03-10T09:38:54.422Z,12.40
2019-03-10T09:41:31.435Z,12.60
2019-03-10T09:44:04.569Z,12.70
2019-03-10T09:46:46.697Z,12.80
2019-03-10T09:49:22.636Z,13.00
2019-03-10T09:52:11.261Z,13.00
2019-03-10T09:54:53.653Z,13.10
2019-03-10T09:57:23.720Z,13.20
2019-03-10T09:59:53.717Z,13.30
2019-03-10T10:02:29.442Z,13.40
2019-03-10T10:04:59.529Z,13.50
2019-03-10T10:07:29.537Z,13.60
2019-03-10T10:10:02.457Z,13.80
2019-03-10T10:12:35.511Z,14.00
2019-03-10T10:15:13.147Z,14.20
2019-03-10T10:17:52.061Z,14.20
2019-03-10T10:20:37.038Z,14.20
2019-03-10T10:23:23.613Z,14.30
2019-03-10T10:26:05.741Z,14.30
2019-03-10T10:28:54.354Z,14.20
2019-03-10T10:31:24.361Z,14.20
2019-03-10T10:34:06.236Z,14.20
2019-03-10T10:36:45.176Z,14.20
2019-03-10T10:39:15.324Z,14.30
2019-03-10T10:41:45.267Z,14.20
2019-03-10T10:44:15.216Z,14.30
2019-03-10T10:46:54.262Z,14.30
2019-03-10T10:49:42.486Z,14.40
2019-03-10T10:52:18.358Z,14.50
2019-03-10T10:54:48.408Z,14.60
2019-03-10T10:57:21.198Z,14.80
2019-03-10T10:59:51.254Z,14.90
2019-03-10T11:02:21.256Z,15.10
2019-03-10T11:04:51.264Z,15.20
2019-03-10T11:07:21.377Z,15.20
2019-03-10T11:09:54.496Z,15.20
2019-03-10T11:12:33.397Z,15.10
2019-03-10T11:15:21.626Z,15.30
2019-03-10T11:17:54.694Z,15.40
2019-03-10T11:20:24.797Z,15.60
2019-03-10T11:23:11.043Z,15.60
2019-03-10T11:25:41.154Z,15.70
2019-03-10T11:28:23.204Z,15.80
2019-03-10T11:31:08.340Z,15.90
2019-03-10T11:33:41.367Z,16.00
2019-03-10T11:36:17.313Z,16.30
2019-03-10T11:38:53.085Z,16.60
2019-03-10T11:41:33.045Z,16.90
2019-03-10T11:44:06.843Z,17.20
2019-03-10T11:46:39.591Z,17.30
2019-03-10T11:49:09.636Z,17.40
2019-03-10T11:51:39.670Z,17.30
2019-03-10T11:54:18.762Z,17.30
2019-03-10T11:56:48.782Z,17.30
2019-03-10T11:59:18.761Z,17.40
2019-03-10T12:02:03.803Z,17.50
2019-03-10T12:04:33.764Z,17.50
2019-03-10T12:07:03.906Z,17.60
2019-03-10T12:09:32.248Z,17.70
2019-03-10T12:12:00.608Z,17.90
2019-03-10T12:14:29.302Z,18.10
2019-03-10T12:16:57.761Z,18.30
2019-03-10T12:19:26.210Z,18.40
2019-03-10T12:21:56.025Z,18.40
2019-03-10T12:24:24.781Z,18.30
2019-03-10T12:26:53.142Z,18.20
2019-03-10T12:29:21.641Z,18.20
2019-03-10T12:31:49.979Z,18.20
2019-03-10T12:34:18.394Z,18.00
2019-03-10T12:36:47.081Z,17.90
2019-03-10T12:39:17.150Z,17.90
2019-03-10T12:41:45.981Z,17.90
2019-03-10T12:44:14.405Z,18.00
2019-03-10T12:46:42.771Z,18.10
2019-03-10T12:49:11.333Z,18.20
2019-03-10T12:51:39.902Z,18.30
2019-03-10T12:54:08.390Z,18.40
2019-03-10T12:56:36.847Z,18.70
2019-03-10T12:59:05.344Z,19.00
2019-03-10T13:01:33.722Z,19.70
2019-03-10T13:04:02.157Z,20.10
2019-03-10T13:06:31.880Z,20.20
2019-03-10T13:09:00.384Z,20.30
2019-03-10T13:11:28.874Z,20.90
2019-03-10T13:13:57.351Z,22.20
2019-03-10T13:16:25.713Z,23.80
2019-03-10T13:18:54.152Z,25.00
2019-03-10T13:21:22.749Z,24.40
2019-03-10T13:23:53.946Z,23.10
2019-03-10T13:26:22.378Z,23.40
2019-03-10T13:28:50.790Z,24.60
2019-03-10T13:31:19.274Z,24.80
2019-03-10T13:33:47.717Z,24.40
2019-03-10T13:36:17.069Z,23.60
2019-03-10T13:38:45.508Z,23.20
2019-03-10T13:41:13.978Z,22.60
2019-03-10T13:43:42.483Z,22.20
2019-03-10T13:46:10.780Z,22.70
2019-03-10T13:48:39.140Z,24.20
2019-03-10T13:51:07.673Z,25.00
2019-03-10T13:53:36.118Z,25.80
2019-03-10T13:56:04.509Z,24.60
2019-03-10T13:58:32.914Z,25.10
2019-03-10T14:01:01.247Z,26.80
2019-03-10T14:03:29.700Z,27.60
2019-03-10T14:05:58.194Z,28.00
2019-03-10T14:08:26.620Z,28.80
2019-03-10T14:10:54.982Z,28.70
2019-03-10T14:13:23.408Z,28.20
2019-03-10T14:15:51.921Z,28.10
2019-03-10T14:18:21.448Z,28.70
2019-03-10T14:20:49.963Z,28.80
2019-03-10T14:23:18.452Z,29.10
2019-03-10T14:25:46.828Z,29.20
2019-03-10T14:28:15.236Z,28.80
2019-03-10T14:30:43.868Z,28.40
2019-03-10T14:33:12.344Z,28.00
2019-03-10T14:35:40.910Z,27.80
2019-03-10T14:38:09.338Z,27.70
2019-03-10T14:40:57.169Z,27.30
2019-03-10T14:43:25.570Z,27.10
2019-03-10T14:46:14.629Z,27.00
2019-03-10T14:49:02.585Z,26.90
2019-03-10T14:51:31.086Z,27.40
2019-03-10T14:53:59.432Z,27.50
2019-03-10T14:56:27.727Z,27.40
2019-03-10T14:58:56.280Z,27.60
2019-03-10T15:01:24.670Z,27.50
2019-03-10T15:03:53.351Z,27.70
2019-03-10T15:06:21.795Z,27.90
2019-03-10T15:08:50.192Z,27.80
2019-03-10T15:11:18.613Z,27.60
2019-03-10T15:13:46.967Z,26.70
2019-03-10T15:16:15.401Z,25.50
2019-03-10T15:18:43.888Z,24.40
2019-03-10T15:21:12.564Z,23.80
2019-03-10T15:23:40.988Z,23.60
2019-03-10T15:26:09.403Z,23.80
2019-03-10T15:28:37.768Z,24.10
2019-03-10T15:31:06.080Z,24.90
2019-03-10T15:33:36.477Z,25.10
2019-03-10T15:38:54.484Z,25.20
2019-03-10T15:41:22.908Z,25.10
2019-03-10T15:43:51.302Z,24.70
2019-03-10T15:46:19.807Z,24.40
2019-03-10T15:48:48.139Z,24.50
2019-03-10T15:51:16.722Z,25.00
2019-03-10T15:53:45.526Z,25.10
2019-03-10T15:56:13.990Z,24.40
2019-03-10T15:58:42.444Z,23.50
2019-03-10T16:01:10.985Z,22.80
2019-03-10T16:03:39.336Z,22.20
2019-03-10T16:06:07.684Z,21.80
2019-03-10T16:08:36.291Z,21.40
2019-03-10T16:11:04.740Z,21.10
2019-03-10T16:13:33.162Z,20.80
2019-03-10T16:16:01.708Z,20.60
2019-03-10T16:18:30.163Z,20.50
2019-03-10T16:20:58.675Z,20.40
2019-03-10T16:23:27.172Z,20.20
2019-03-10T16:25:55.663Z,20.00
2019-03-10T16:28:24.152Z,20.00
2019-03-10T16:30:52.610Z,19.90
2019-03-10T16:33:20.972Z,19.70
2019-03-10T16:35:49.360Z,19.50
2019-03-10T16:38:17.861Z,19.50
2019-03-10T16:40:46.187Z,19.30
2019-03-10T16:43:14.665Z,19.20
2019-03-10T16:45:43.140Z,19.20
2019-03-10T16:48:11.709Z,19.10
2019-03-10T16:50:40.199Z,19.00
2019-03-10T16:53:08.746Z,18.80
2019-03-10T16:55:37.265Z,18.60
2019-03-10T16:58:05.762Z,18.60
2019-03-10T17:00:34.188Z,18.60
2019-03-10T17:03:02.678Z,18.50
2019-03-10T17:05:31.119Z,18.30
2019-03-10T17:07:59.678Z,18.20
2019-03-10T17:10:29.629Z,18.10
2019-03-10T17:12:58.061Z,17.90
2019-03-10T17:15:26.617Z,17.80
2019-03-10T17:17:55.184Z,17.70
2019-03-10T17:20:23.581Z,17.60
2019-03-10T17:22:52.221Z,17.50
2019-03-10T17:25:20.580Z,17.30
2019-03-10T17:27:49.049Z,17.20
2019-03-10T17:30:21.089Z,17.20
2019-03-10T17:32:49.749Z,17.10
2019-03-10T17:35:19.100Z,17.00
2019-03-10T17:37:48.760Z,16.90
2019-03-10T17:40:25.568Z,16.90
2019-03-10T17:42:53.497Z,16.90
2019-03-10T17:45:26.034Z,16.80
2019-03-10T17:47:54.504Z,16.70
2019-03-10T17:50:23.002Z,16.70
2019-03-10T17:52:51.409Z,16.70
2019-03-10T17:55:20.884Z,16.60
2019-03-10T17:58:08.960Z,16.50
2019-03-10T18:00:39.270Z,16.40
2019-03-10T18:03:07.672Z,16.40
2019-03-10T18:05:36.155Z,16.40
2019-03-10T18:08:04.682Z,16.30
2019-03-10T18:10:33.138Z,16.20
2019-03-10T18:13:01.665Z,16.20
2019-03-10T18:15:30.087Z,16.10
2019-03-10T18:17:58.528Z,16.00
2019-03-10T18:20:26.987Z,15.90
2019-03-10T18:22:55.413Z,15.70
2019-03-10T18:25:23.948Z,15.70
2019-03-10T18:27:52.310Z,15.70
2019-03-10T18:30:21.830Z,15.60
2019-03-10T18:33:09.668Z,15.60
2019-03-10T18:35:37.997Z,15.60
2019-03-10T18:38:06.596Z,15.50
2019-03-10T18:40:35.141Z,15.50
2019-03-10T18:43:03.605Z,15.40
2019-03-10T18:45:32.105Z,15.40
2019-03-10T18:48:00.554Z,15.40
2019-03-10T18:50:29.044Z,15.40
2019-03-10T18:52:57.566Z,15.30
2019-03-10T18:55:25.995Z,15.30
2019-03-10T18:57:54.407Z,15.20
2019-03-10T19:00:32.006Z,15.10
2019-03-10T19:03:00.480Z,15.10
2019-03-10T19:05:28.979Z,15.00
2019-03-10T19:07:57.597Z,14.90
2019-03-10T19:10:26.005Z,14.80
2019-03-10T19:12:54.491Z,14.70
2019-03-10T19:15:24.209Z,14.70
2019-03-10T19:18:04.798Z,14.70
2019-03-10T19:20:33.357Z,14.70
2019-03-10T19:23:08.713Z,14.60
2019-03-10T19:25:37.206Z,14.60
2019-03-10T19:28:05.802Z,14.50
2019-03-10T19:30:34.307Z,14.50
2019-03-10T19:33:02.817Z,14.40
2019-03-10T19:35:31.487Z,14.40
2019-03-10T19:38:00.066Z,14.30
2019-03-10T19:40:28.667Z,14.30
2019-03-10T19:42:57.447Z,14.20
2019-03-10T19:45:25.929Z,14.30
2019-03-10T19:47:54.421Z,14.30
2019-03-10T19:50:27.998Z,14.10
2019-03-10T19:52:56.638Z,14.00
2019-03-10T19:55:25.110Z,13.90
2019-03-10T19:57:54.135Z,13.90
2019-03-10T20:00:23.377Z,13.90
2019-03-10T20:02:51.866Z,13.90
2019-03-10T20:05:20.345Z,13.70
2019-03-10T20:07:48.701Z,13.70
2019-03-10T20:10:18.322Z,13.60
2019-03-10T20:12:46.824Z,13.50
2019-03-10T20:15:25.713Z,13.40
2019-03-10T20:17:55.315Z,13.40
2019-03-10T20:20:26.276Z,13.30
2019-03-10T20:22:54.912Z,13.40
2019-03-10T20:25:23.421Z,13.40
2019-03-10T20:27:51.921Z,13.50
2019-03-10T20:30:21.656Z,13.50
2019-03-10T20:32:50.088Z,13.40
2019-03-10T20:35:18.641Z,13.50
2019-03-10T20:37:47.136Z,13.50
2019-03-10T20:40:17.775Z,13.40
2019-03-10T20:42:46.241Z,13.40
2019-03-10T20:45:14.854Z,13.40
2019-03-10T20:48:02.820Z,13.30
2019-03-10T20:50:31.219Z,13.20
2019-03-10T20:52:59.665Z,13.10
2019-03-10T20:55:30.744Z,13.00
2019-03-10T20:57:59.195Z,12.90
2019-03-10T21:00:30.368Z,12.90
2019-03-10T21:02:58.924Z,12.80
2019-03-10T21:05:27.392Z,12.80
2019-03-10T21:08:01.558Z,12.80
2019-03-10T21:10:30.036Z,12.70
2019-03-10T21:12:58.540Z,12.70
2019-03-10T21:15:27.146Z,12.70
2019-03-10T21:17:55.531Z,12.50
2019-03-10T21:20:26.257Z,12.40
2019-03-10T21:22:54.712Z,12.40
2019-03-10T21:25:31.148Z,12.40
2019-03-10T21:27:59.701Z,12.40
2019-03-10T21:30:29.891Z,12.40
2019-03-10T21:32:58.340Z,12.40
2019-03-10T21:35:26.838Z,12.40
2019-03-10T21:37:55.385Z,12.40
2019-03-10T21:40:26.279Z,12.50
2019-03-10T21:42:54.705Z,12.50
2019-03-10T21:45:23.246Z,12.40
2019-03-10T21:47:51.685Z,12.40
2019-03-10T21:50:20.137Z,12.40
2019-03-10T21:52:48.711Z,12.30
2019-03-10T21:55:17.979Z,12.30
2019-03-10T21:57:46.378Z,12.20
2019-03-10T22:00:19.477Z,12.20
2019-03-10T22:02:47.941Z,12.10
2019-03-10T22:05:17.277Z,12.10
2019-03-10T22:07:45.763Z,12.00
2019-03-10T22:10:27.607Z,12.10
2019-03-10T22:12:51.726Z,12.10
2019-03-10T22:15:20.957Z,12.10
2019-03-10T22:17:49.484Z,12.10
2019-03-10T22:20:20.960Z,12.00
2019-03-10T22:22:50.203Z,11.90
2019-03-10T22:25:18.859Z,11.80
2019-03-10T22:27:47.330Z,11.70
2019-03-10T22:30:19.061Z,11.70
2019-03-10T22:32:47.572Z,11.50
2019-03-10T22:35:15.925Z,11.50
2019-03-10T22:37:44.369Z,11.40
2019-03-10T22:40:17.583Z,11.50
2019-03-10T22:42:46.043Z,11.60
2019-03-10T22:45:20.750Z,11.60
2019-03-10T22:48:08.794Z,11.70
2019-03-10T22:50:40.278Z,11.70
2019-03-10T22:53:08.772Z,11.70
2019-03-10T22:55:37.194Z,11.60
2019-03-10T22:58:05.579Z,11.60
2019-03-10T23:00:53.769Z,11.60
2019-03-10T23:03:22.178Z,11.60
2019-03-10T23:05:50.634Z,11.60
2019-03-10T23:08:19.057Z,11.60
2019-03-10T23:10:47.534Z,11.60
2019-03-10T23:13:15.987Z,11.60
2019-03-10T23:15:44.526Z,11.50
2019-03-10T23:18:12.917Z,11.50
2019-03-10T23:20:41.337Z,11.40
2019-03-10T23:23:09.809Z,11.30
2019-03-10T23:25:38.170Z,11.30
2019-03-10T23:28:06.636Z,11.30
2019-03-10T23:30:35.159Z,11.40
2019-03-10T23:33:03.620Z,11.30
2019-03-10T23:35:32.212Z,11.30
2019-03-10T23:38:00.747Z,11.30
2019-03-10T23:40:29.222Z,11.20
2019-03-10T23:42:57.620Z,11.30
2019-03-10T23:45:26.095Z,11.40
2019-03-10T23:47:55.301Z,11.40
2019-03-10T23:50:23.733Z,11.40
2019-03-10T23:52:52.199Z,11.40
2019-03-10T23:55:20.656Z,11.50
2019-03-10T23:57:49.125Z,11.50
